Time,TemperatureF,DewpointF,PressureIn,WindDirection,WindDirectionDegrees,WindSpeedMPH,WindSpeedGustMPH,Humidity,HourlyPrecipIn,Conditions,Clouds,dailyrainin,SolarRadiationWatts/m^2,SoftwareType,DateUTC
2013-07-18 00:03:00,75.9,73.0,30.15,SW,233,0.0,-999.0,91,-99.99,,,0.00,0,weatherlink.com 1.10,2013-07-18 04:03:00,
2013-07-18 00:18:00,75.9,74.0,30.16,SW,233,0.0,-999.0,92,-99.99,,,0.00,0,weatherlink.com 1.10,2013-07-18 04:18:00,
2013-07-18 00:33:00,75.6,74.0,30.15,SW,233,0.0,-999.0,93,-99.99,,,0.00,0,weatherlink.com 1.10,2013-07-18 04:33:00,
2013-07-18 00:48:00,75.2,73.0,30.15,SW,233,0.0,-999.0,93,-99.99,,,0.00,0,weatherlink.com 1.10,2013-07-18 04:48:00,
2013-07-18 01:03:00,75.0,73.0,30.15,SW,233,0.0,-999.0,94,-99.99,,,0.00,0,weatherlink.com 1.10,2013-07-18 05:03:00,
2013-07-18 01:18:00,74.5,73.0,30.15,SW,233,0.0,-999.0,94,-99.99,,,0.00,0,weatherlink.com 1.10,2013-07-18 05:18:00,
2013-07-18 01:33:00,74.2,73.0,30.14,SW,233,0.0,-999.0,95,-99.99,,,0.00,0,weatherlink.com 1.10,2013-07-18 05:33:00,
2013-07-18 01:48:00,74.0,72.0,30.14,SW,233,0.0,-999.0,94,-99.99,,,0.00,0,weatherlink.com 1.10,2013-07-18 05:48:00,
2013-07-18 02:03:00,73.8,72.0,30.14,SW,233,0.0,-999.0,94,-99.99,,,0.00,0,weatherlink.com 1.10,2013-07-18 06:03:00,
2013-07-18 02:18:00,73.7,72.0,30.14,SW,233,0.0,-999.0,95,-99.99,,,0.00,0,weatherlink.com 1.10,2013-07-18 06:18:00,
2013-07-18 02:33:00,73.8,72.0,30.14,SW,233,0.0,-999.0,95,-99.99,,,0.00,0,weatherlink.com 1.10,2013-07-18 06:33:00,
2013-07-18 02:48:00,74.0,73.0,30.13,SW,233,0.0,-999.0,95,-99.99,,,0.00,0,weatherlink.com 1.10,2013-07-18 06:48:00,
2013-07-18 03:03:00,73.8,72.0,30.13,SW,233,0.0,-999.0,94,-99.99,,,0.00,0,weatherlink.com 1.10,2013-07-18 07:03:00,
2013-07-18 03:18:00,73.8,72.0,30.13,SW,233,0.0,-999.0,94,-99.99,,,0.00,0,weatherlink.com 1.10,2013-07-18 07:18:00,
2013-07-18 03:33:00,73.9,72.0,30.13,SW,233,0.0,-999.0,94,-99.99,,,0.00,0,weatherlink.com 1.10,2013-07-18 07:33:00,
2013-07-18 03:48:00,73.9,72.0,30.13,SW,233,0.0,-999.0,94,-99.99,,,0.00,0,weatherlink.com 1.10,2013-07-18 07:48:00,
2013-07-18 04:03:00,73.5,72.0,30.13,SW,233,0.0,-999.0,94,-99.99,,,0.00,0,weatherlink.com 1.10,2013-07-18 08:03:00,
2013-07-18 04:18:00,73.5,72.0,30.13,SW,233,0.0,-999.0,94,-99.99,,,0.00,0,weatherlink.com 1.10,2013-07-18 08:18:00,
2013-07-18 04:33:00,73.3,72.0,30.13,SW,233,0.0,-999.0,94,-99.99,,,0.00,0,weatherlink.com 1.10,2013-07-18 08:33:00,
2013-07-18 04:48:00,73.2,72.0,30.12,SW,233,0.0,-999.0,95,-99.99,,,0.00,0,weatherlink.com 1.10,2013-07-18 08:48:00,
2013-07-18 05:03:00,73.1,72.0,30.11,SW,233,0.0,-999.0,95,-99.99,,,0.00,0,weatherlink.com 1.10,2013-07-18 09:03:00,
2013-07-18 05:18:00,73.1,72.0,30.11,SW,233,0.0,-999.0,95,-99.99,,,0.00,0,weatherlink.com 1.10,2013-07-18 09:18:00,
2013-07-18 05:33:00,72.7,71.0,30.11,SW,221,0.0,-999.0,95,-99.99,,,0.00,0,weatherlink.com 1.10,2013-07-18 09:33:00,
2013-07-18 05:48:00,72.7,71.0,30.11,SW,221,0.0,-999.0,95,-99.99,,,0.00,0,weatherlink.com 1.10,2013-07-18 09:48:00,
2013-07-18 06:03:00,72.2,71.0,30.11,SW,224,0.0,-999.0,95,-99.99,,,0.00,0,weatherlink.com 1.10,2013-07-18 10:03:00,
2013-07-18 06:18:00,72.2,71.0,30.11,SW,224,0.0,-999.0,96,-99.99,,,0.00,0,weatherlink.com 1.10,2013-07-18 10:18:00,
2013-07-18 06:33:00,72.4,71.0,30.12,SW,224,0.0,-999.0,96,-99.99,,,0.00,5,weatherlink.com 1.10,2013-07-18 10:33:00,
2013-07-18 06:48:00,72.1,71.0,30.12,SW,224,0.0,-999.0,96,-99.99,,,0.00,14,weatherlink.com 1.10,2013-07-18 10:48:00,
2013-07-18 07:03:00,72.4,71.0,30.12,SW,224,0.0,-999.0,96,-99.99,,,0.00,32,weatherlink.com 1.10,2013-07-18 11:03:00,
2013-07-18 07:18:00,72.7,72.0,30.12,SW,229,0.0,-999.0,96,-99.99,,,0.00,53,weatherlink.com 1.10,2013-07-18 11:18:00,
2013-07-18 07:33:00,73.2,72.0,30.12,SW,231,0.0,-999.0,96,-99.99,,,0.00,84,weatherlink.com 1.10,2013-07-18 11:33:00,
2013-07-18 07:48:00,74.1,73.0,30.12,WSW,253,0.0,-999.0,96,-99.99,,,0.00,125,weatherlink.com 1.10,2013-07-18 11:48:00,
2013-07-18 08:03:00,75.0,73.0,30.12,WSW,241,0.0,-999.0,94,-99.99,,,0.00,77,weatherlink.com 1.10,2013-07-18 12:03:00,
2013-07-18 08:18:00,75.1,73.0,30.13,WSW,237,0.0,-999.0,94,-99.99,,,0.00,76,weatherlink.com 1.10,2013-07-18 12:18:00,
2013-07-18 08:33:00,75.5,74.0,30.12,WSW,239,0.0,-999.0,94,-99.99,,,0.00,232,weatherlink.com 1.10,2013-07-18 12:33:00,
2013-07-18 08:48:00,76.8,74.0,30.12,WSW,238,0.0,-999.0,92,-99.99,,,0.00,225,weatherlink.com 1.10,2013-07-18 12:48:00,
2013-07-18 09:03:00,77.6,75.0,30.12,SW,232,0.0,-999.0,90,-99.99,,,0.00,306,weatherlink.com 1.10,2013-07-18 13:03:00,
2013-07-18 09:18:00,78.9,76.0,30.12,WSW,242,0.0,-999.0,89,-99.99,,,0.00,350,weatherlink.com 1.10,2013-07-18 13:18:00,
2013-07-18 09:33:00,80.5,76.0,30.12,SW,229,0.0,-999.0,86,-99.99,,,0.00,392,weatherlink.com 1.10,2013-07-18 13:33:00,
2013-07-18 09:48:00,82.1,77.0,30.12,SW,232,0.0,-999.0,83,-99.99,,,0.00,441,weatherlink.com 1.10,2013-07-18 13:48:00,
2013-07-18 10:03:00,83.2,77.0,30.11,West,274,0.0,-999.0,81,-99.99,,,0.00,471,weatherlink.com 1.10,2013-07-18 14:03:00,
2013-07-18 10:18:00,84.0,77.0,30.11,West,272,0.0,-999.0,78,-99.99,,,0.00,513,weatherlink.com 1.10,2013-07-18 14:18:00,
2013-07-18 10:33:00,85.1,78.0,30.11,NW,320,0.0,-999.0,80,-99.99,,,0.00,555,weatherlink.com 1.10,2013-07-18 14:33:00,
2013-07-18 10:48:00,86.2,78.0,30.11,West,280,0.0,-999.0,77,-99.99,,,0.00,545,weatherlink.com 1.10,2013-07-18 14:48:00,
2013-07-18 11:03:00,86.4,78.0,30.11,SW,224,3.0,-999.0,77,-99.99,,,0.00,612,weatherlink.com 1.10,2013-07-18 15:03:00,
2013-07-18 11:18:00,86.5,78.0,30.11,SW,222,6.0,-999.0,75,-99.99,,,0.00,654,weatherlink.com 1.10,2013-07-18 15:18:00,
2013-07-18 11:33:00,86.9,77.0,30.10,SW,218,4.0,-999.0,73,-99.99,,,0.00,705,weatherlink.com 1.10,2013-07-18 15:33:00,
2013-07-18 11:48:00,88.1,77.0,30.10,SW,221,5.0,-999.0,70,-99.99,,,0.00,758,weatherlink.com 1.10,2013-07-18 15:48:00,
2013-07-18 12:03:00,88.1,77.0,30.10,WNW,283,0.0,-999.0,70,-99.99,,,0.00,800,weatherlink.com 1.10,2013-07-18 16:03:00,
2013-07-18 12:18:00,88.6,77.0,30.09,SSW,212,5.0,-999.0,69,-99.99,,,0.00,824,weatherlink.com 1.10,2013-07-18 16:18:00,
2013-07-18 12:33:00,88.4,76.0,30.09,SSW,211,7.0,-999.0,67,-99.99,,,0.00,842,weatherlink.com 1.10,2013-07-18 16:33:00,
2013-07-18 12:48:00,89.0,76.0,30.09,West,268,4.0,-999.0,66,-99.99,,,0.00,905,weatherlink.com 1.10,2013-07-18 16:48:00,
2013-07-18 13:03:00,89.1,75.0,30.09,West,263,4.0,-999.0,64,-99.99,,,0.00,872,weatherlink.com 1.10,2013-07-18 17:03:00,
2013-07-18 13:18:00,89.2,75.0,30.08,SW,230,5.0,-999.0,63,-99.99,,,0.00,896,weatherlink.com 1.10,2013-07-18 17:18:00,
2013-07-18 13:33:00,89.9,75.0,30.08,WSW,251,2.0,-999.0,62,-99.99,,,0.00,916,weatherlink.com 1.10,2013-07-18 17:33:00,
2013-07-18 13:49:00,89.8,76.0,30.07,SSW,205,7.0,-999.0,64,-99.99,,,0.00,928,weatherlink.com 1.10,2013-07-18 17:49:00,
2013-07-18 14:04:00,89.0,75.0,30.07,WSW,240,5.0,-999.0,64,-99.99,,,0.00,879,weatherlink.com 1.10,2013-07-18 18:04:00,
2013-07-18 14:19:00,90.1,76.0,30.06,SW,235,6.0,-999.0,63,-99.99,,,0.00,868,weatherlink.com 1.10,2013-07-18 18:19:00,
2013-07-18 14:34:00,89.9,74.0,30.06,South,186,10.0,-999.0,60,-99.99,,,0.00,854,weatherlink.com 1.10,2013-07-18 18:34:00,
2013-07-18 14:49:00,89.6,74.0,30.05,SW,234,6.0,-999.0,60,-99.99,,,0.00,856,weatherlink.com 1.10,2013-07-18 18:49:00,
2013-07-18 15:04:00,90.1,75.0,30.05,SSW,201,9.0,-999.0,61,-99.99,,,0.00,840,weatherlink.com 1.10,2013-07-18 19:04:00,
2013-07-18 15:19:00,90.8,76.0,30.05,SSW,206,9.0,-999.0,63,-99.99,,,0.00,826,weatherlink.com 1.10,2013-07-18 19:19:00,
2013-07-18 15:34:00,90.5,77.0,30.04,South,187,6.0,-999.0,64,-99.99,,,0.00,819,weatherlink.com 1.10,2013-07-18 19:34:00,
2013-07-18 15:49:00,90.1,76.0,30.03,SW,228,6.0,-999.0,63,-99.99,,,0.00,796,weatherlink.com 1.10,2013-07-18 19:49:00,
2013-07-18 16:04:00,90.1,75.0,30.02,SSW,202,5.0,-999.0,62,-99.99,,,0.00,766,weatherlink.com 1.10,2013-07-18 20:04:00,
2013-07-18 16:19:00,90.6,74.0,30.02,SW,235,3.0,-999.0,59,-99.99,,,0.00,729,weatherlink.com 1.10,2013-07-18 20:19:00,
2013-07-18 16:33:00,90.4,76.0,30.02,SW,219,9.0,-999.0,62,-99.99,,,0.00,710,weatherlink.com 1.10,2013-07-18 20:33:00,
2013-07-18 16:49:00,90.4,74.0,30.01,SW,233,7.0,-999.0,59,-99.99,,,0.00,679,weatherlink.com 1.10,2013-07-18 20:49:00,
2013-07-18 17:04:00,91.0,76.0,30.00,SSW,197,5.0,-999.0,62,-99.99,,,0.00,633,weatherlink.com 1.10,2013-07-18 21:04:00,
2013-07-18 17:18:00,90.0,74.0,30.00,SSW,209,6.0,-999.0,60,-99.99,,,0.00,601,weatherlink.com 1.10,2013-07-18 21:18:00,
2013-07-18 17:33:00,90.5,76.0,29.99,SSW,211,5.0,-999.0,62,-99.99,,,0.00,547,weatherlink.com 1.10,2013-07-18 21:33:00,
2013-07-18 17:48:00,90.1,77.0,29.98,SSW,204,8.0,-999.0,65,-99.99,,,0.00,524,weatherlink.com 1.10,2013-07-18 21:48:00,
2013-07-18 18:03:00,89.9,77.0,29.98,South,189,4.0,-999.0,65,-99.99,,,0.00,473,weatherlink.com 1.10,2013-07-18 22:03:00,
2013-07-18 18:18:00,89.5,76.0,29.98,SSW,211,6.0,-999.0,64,-99.99,,,0.00,434,weatherlink.com 1.10,2013-07-18 22:18:00,
2013-07-18 18:33:00,89.3,77.0,29.97,SW,216,3.0,-999.0,67,-99.99,,,0.00,388,weatherlink.com 1.10,2013-07-18 22:33:00,
2013-07-18 18:48:00,89.0,77.0,29.97,SW,224,8.0,-999.0,67,-99.99,,,0.00,345,weatherlink.com 1.10,2013-07-18 22:48:00,
2013-07-18 19:03:00,88.7,76.0,29.96,South,190,4.0,-999.0,66,-99.99,,,0.00,297,weatherlink.com 1.10,2013-07-18 23:03:00,
2013-07-18 19:18:00,89.0,77.0,29.96,SSW,204,3.0,-999.0,68,-99.99,,,0.00,253,weatherlink.com 1.10,2013-07-18 23:18:00,
2013-07-18 19:33:00,88.3,78.0,29.96,SSW,212,2.0,-999.0,71,-99.99,,,0.00,206,weatherlink.com 1.10,2013-07-18 23:33:00,
2013-07-18 19:48:00,87.6,77.0,29.96,SSW,213,3.0,-999.0,71,-99.99,,,0.00,156,weatherlink.com 1.10,2013-07-18 23:48:00,
2013-07-18 20:03:00,87.1,77.0,29.95,SSW,209,1.0,-999.0,72,-99.99,,,0.00,114,weatherlink.com 1.10,2013-07-19 00:03:00,
2013-07-18 20:18:00,86.6,77.0,29.95,SW,218,1.0,-999.0,73,-99.99,,,0.00,72,weatherlink.com 1.10,2013-07-19 00:18:00,
2013-07-18 20:33:00,85.7,78.0,29.95,SW,218,2.0,-999.0,77,-99.99,,,0.00,42,weatherlink.com 1.10,2013-07-19 00:33:00,
2013-07-18 20:48:00,84.7,77.0,29.95,SW,218,3.0,-999.0,77,-99.99,,,0.00,11,weatherlink.com 1.10,2013-07-19 00:48:00,
2013-07-18 21:03:00,83.1,76.0,29.95,SSW,210,1.0,-999.0,80,-99.99,,,0.00,7,weatherlink.com 1.10,2013-07-19 01:03:00,
2013-07-18 21:18:00,82.4,76.0,29.95,South,191,3.0,-999.0,81,-99.99,,,0.00,0,weatherlink.com 1.10,2013-07-19 01:18:00,
2013-07-18 21:33:00,81.7,76.0,29.96,South,191,2.0,-999.0,83,-99.99,,,0.00,0,weatherlink.com 1.10,2013-07-19 01:33:00,
2013-07-18 21:48:00,81.1,76.0,29.96,South,191,0.0,-999.0,84,-99.99,,,0.00,0,weatherlink.com 1.10,2013-07-19 01:48:00,
2013-07-18 22:03:00,80.4,76.0,29.96,South,191,0.0,-999.0,85,-99.99,,,0.00,0,weatherlink.com 1.10,2013-07-19 02:03:00,
2013-07-18 22:18:00,79.7,75.0,29.97,South,172,0.0,-999.0,86,-99.99,,,0.00,0,weatherlink.com 1.10,2013-07-19 02:18:00,
2013-07-18 22:33:00,78.8,75.0,29.97,South,174,0.0,-999.0,87,-99.99,,,0.00,0,weatherlink.com 1.10,2013-07-19 02:33:00,
2013-07-18 22:48:00,78.6,75.0,29.97,South,177,0.0,-999.0,87,-99.99,,,0.00,0,weatherlink.com 1.10,2013-07-19 02:48:00,
2013-07-18 23:03:00,78.5,74.0,29.97,SSW,193,0.0,-999.0,87,-99.99,,,0.00,0,weatherlink.com 1.10,2013-07-19 03:03:00,
2013-07-18 23:18:00,78.8,74.0,29.97,South,191,0.0,-999.0,86,-99.99,,,0.00,0,weatherlink.com 1.10,2013-07-19 03:18:00,
2013-07-18 23:33:00,78.3,74.0,29.97,South,188,0.0,-999.0,87,-99.99,,,0.00,0,weatherlink.com 1.10,2013-07-19 03:33:00,
2013-07-18 23:48:00,77.8,74.0,29.97,South,191,0.0,-999.0,88,-99.99,,,0.00,0,weatherlink.com 1.10,2013-07-19 03:48:00,